createdAt,value
2023-01-06T00:00:08.255Z,6.29
2023-01-06T00:01:08.490Z,6.31
2023-01-06T00:02:08.633Z,6.31
2023-01-06T00:03:08.194Z,6.29
2023-01-06T00:04:08.565Z,6.28
2023-01-06T00:05:08.448Z,6.28
2023-01-06T00:06:08.157Z,6.28
2023-01-06T00:07:08.139Z,6.31
2023-01-06T00:08:08.389Z,6.36
2023-01-06T00:09:08.384Z,6.33
2023-01-06T00:10:08.107Z,6.28
2023-01-06T00:11:08.337Z,6.34
2023-01-06T00:12:08.063Z,6.39
2023-01-06T00:13:08.051Z,6.34
2023-01-06T00:14:08.041Z,6.39
2023-01-06T00:15:08.283Z,6.26
2023-01-06T00:16:07.875Z,6.36
2023-01-06T00:17:08.250Z,6.39
2023-01-06T00:18:08.208Z,6.39
2023-01-06T00:19:08.220Z,6.43
2023-01-06T00:20:08.320Z,6.42
2023-01-06T00:21:08.208Z,6.47
2023-01-06T00:22:07.930Z,6.43
2023-01-06T00:23:08.150Z,6.46
2023-01-06T00:24:07.873Z,6.46
2023-01-06T00:25:08.121Z,6.47
2023-01-06T00:26:08.091Z,6.47
2023-01-06T00:27:08.084Z,6.46
2023-01-06T00:28:08.067Z,6.51
2023-01-06T00:29:08.044Z,6.49
2023-01-06T00:30:08.084Z,6.52
2023-01-06T00:31:07.742Z,6.49
2023-01-06T00:32:07.553Z,6.52
2023-01-06T00:33:07.998Z,6.55
2023-01-06T00:34:08.234Z,6.6
2023-01-06T00:35:07.723Z,6.51
2023-01-06T00:36:08.085Z,6.55
2023-01-06T00:37:07.683Z,6.55
2023-01-06T00:38:07.697Z,6.58
2023-01-06T00:39:07.894Z,6.54
2023-01-06T00:40:07.388Z,6.58
2023-01-06T00:41:07.619Z,6.57
2023-01-06T00:42:07.889Z,6.58
2023-01-06T00:43:07.899Z,6.55
2023-01-06T00:44:07.841Z,6.6
2023-01-06T00:45:07.552Z,6.57
2023-01-06T00:46:07.770Z,6.6
2023-01-06T00:47:07.782Z,6.72
2023-01-06T00:48:07.783Z,6.61
2023-01-06T00:49:10.914Z,6.6
2023-01-06T00:50:07.720Z,6.64
2023-01-06T00:51:07.712Z,6.62
2023-01-06T00:52:07.827Z,6.65
2023-01-06T00:53:07.718Z,6.7
2023-01-06T00:54:07.552Z,6.73
2023-01-06T00:55:07.486Z,6.7
2023-01-06T00:56:07.385Z,6.7
2023-01-06T00:57:07.131Z,6.75
2023-01-06T00:58:07.100Z,6.7
2023-01-06T00:59:07.363Z,6.83
2023-01-06T01:00:07.598Z,6.78
2023-01-06T01:01:07.614Z,6.73
2023-01-06T01:02:08.206Z,6.79
2023-01-06T01:03:07.791Z,6.82
2023-01-06T01:04:07.556Z,6.79
2023-01-06T01:05:07.455Z,6.76
2023-01-06T01:06:06.990Z,6.78
2023-01-06T01:07:07.479Z,6.76
2023-01-06T01:08:07.582Z,6.88
2023-01-06T01:09:07.452Z,6.85
2023-01-06T01:10:07.209Z,6.75
2023-01-06T01:11:07.673Z,6.82
2023-01-06T01:12:07.414Z,6.83
2023-01-06T01:13:07.154Z,6.83
2023-01-06T01:14:07.128Z,6.86
2023-01-06T01:15:07.098Z,6.76
2023-01-06T01:16:07.030Z,6.85
2023-01-06T01:17:07.066Z,6.86
2023-01-06T01:18:07.047Z,6.83
2023-01-06T01:19:07.325Z,6.86
2023-01-06T01:20:07.281Z,6.85
2023-01-06T01:21:07.515Z,6.8
2023-01-06T01:22:07.289Z,6.82
2023-01-06T01:23:06.974Z,6.86
2023-01-06T01:24:07.338Z,6.83
2023-01-06T01:25:06.955Z,6.79
2023-01-06T01:26:07.186Z,6.83
2023-01-06T01:27:06.917Z,6.91
2023-01-06T01:28:06.655Z,6.83
2023-01-06T01:29:06.908Z,6.88
2023-01-06T01:30:06.872Z,6.86
2023-01-06T01:31:07.384Z,6.9
2023-01-06T01:32:07.109Z,6.82
2023-01-06T01:33:06.816Z,6.82
2023-01-06T01:34:07.107Z,6.88
2023-01-06T01:35:07.057Z,6.86
2023-01-06T01:36:06.788Z,6.8
2023-01-06T01:38:07.128Z,6.83
2023-01-06T01:39:06.743Z,6.93
2023-01-06T01:40:07.089Z,6.88
2023-01-06T01:41:06.694Z,6.95
2023-01-06T01:42:06.986Z,6.91
2023-01-06T01:43:06.931Z,6.88
2023-01-06T01:44:06.938Z,6.83
2023-01-06T01:45:06.914Z,6.94
2023-01-06T01:46:06.457Z,6.93
2023-01-06T01:47:06.649Z,6.9
2023-01-06T01:48:06.868Z,6.9
2023-01-06T01:49:06.587Z,6.94
2023-01-06T01:50:06.564Z,6.97
2023-01-06T01:51:06.805Z,6.9
2023-01-06T01:52:06.785Z,7
2023-01-06T01:53:06.899Z,7.01
2023-01-06T01:54:06.894Z,7
2023-01-06T01:55:06.741Z,7.03
2023-01-06T01:56:06.623Z,7.01
2023-01-06T01:57:06.711Z,7
2023-01-06T01:58:06.725Z,7
2023-01-06T01:59:06.188Z,7.01
2023-01-06T02:00:06.664Z,6.98
2023-01-06T02:01:06.822Z,6.98
2023-01-06T02:02:07.197Z,6.98
2023-01-06T02:03:07.008Z,7.08
2023-01-06T02:04:06.346Z,7.08
2023-01-06T02:05:06.604Z,7.04
2023-01-06T02:06:06.322Z,6.97
2023-01-06T02:07:06.308Z,6.98
2023-01-06T02:08:06.549Z,7.11
2023-01-06T02:09:06.643Z,7.03
2023-01-06T02:10:06.417Z,7.09
2023-01-06T02:11:06.279Z,6.98
2023-01-06T02:12:06.684Z,7.05
2023-01-06T02:13:06.238Z,6.98
2023-01-06T02:14:06.456Z,7.08
2023-01-06T02:15:06.466Z,7.05
2023-01-06T02:16:06.829Z,7.08
2023-01-06T02:17:06.219Z,6.98
2023-01-06T02:18:06.151Z,7.01
2023-01-06T02:19:06.137Z,6.98
2023-01-06T02:20:06.373Z,6.97
2023-01-06T02:21:06.371Z,7.03
2023-01-06T02:22:06.096Z,7
2023-01-06T02:23:05.818Z,6.98
2023-01-06T02:24:06.312Z,7.03
2023-01-06T02:25:06.825Z,7.04
2023-01-06T02:26:06.178Z,7.09
2023-01-06T02:27:06.295Z,7.04
2023-01-06T02:28:06.360Z,7.05
2023-01-06T02:29:05.761Z,7.12
2023-01-06T02:30:06.212Z,7.05
2023-01-06T02:31:06.427Z,7.04
2023-01-06T02:32:05.957Z,7.03
2023-01-06T02:33:06.184Z,7.08
2023-01-06T02:34:06.167Z,7.13
2023-01-06T02:35:05.889Z,7.16
2023-01-06T02:36:05.888Z,7.16
2023-01-06T02:37:06.122Z,7.05
2023-01-06T02:38:06.118Z,7.16
2023-01-06T02:39:06.091Z,7.08
2023-01-06T02:40:05.811Z,7.21
2023-01-06T02:41:05.839Z,7.09
2023-01-06T02:42:05.923Z,7.08
2023-01-06T02:43:05.776Z,7.19
2023-01-06T02:44:06.136Z,7.19
2023-01-06T02:45:05.998Z,7.18
2023-01-06T02:46:06.124Z,7.15
2023-01-06T02:47:05.981Z,7.11
2023-01-06T02:48:05.957Z,7.12
2023-01-06T02:49:05.952Z,7.15
2023-01-06T02:50:05.950Z,7.15
2023-01-06T02:51:05.399Z,7.16
2023-01-06T02:52:05.906Z,7.09
2023-01-06T02:53:05.620Z,7.12
2023-01-06T02:54:05.601Z,7.12
2023-01-06T02:55:05.592Z,7.16
2023-01-06T02:56:05.569Z,7.11
2023-01-06T02:57:05.929Z,7.11
2023-01-06T02:58:05.693Z,7.15
2023-01-06T02:59:05.543Z,7.16
2023-01-06T03:00:05.658Z,7.12
2023-01-06T03:01:05.810Z,7.08
2023-01-06T03:02:06.097Z,7.13
2023-01-06T03:03:05.481Z,7.04
2023-01-06T03:04:05.194Z,7.04
2023-01-06T03:05:05.443Z,7.03
2023-01-06T03:06:05.670Z,7.05
2023-01-06T03:07:05.430Z,7.03
2023-01-06T03:08:05.810Z,7.12
2023-01-06T03:09:05.641Z,7.05
2023-01-06T03:10:05.649Z,7.03
2023-01-06T03:11:05.356Z,7.05
2023-01-06T03:12:05.344Z,7.04
2023-01-06T03:13:05.690Z,6.97
2023-01-06T03:14:05.436Z,7.05
2023-01-06T03:15:05.300Z,7.09
2023-01-06T03:16:05.949Z,7.05
2023-01-06T03:17:05.574Z,7.09
2023-01-06T03:18:05.513Z,7.04
2023-01-06T03:19:05.474Z,7.09
2023-01-06T03:20:05.218Z,7.05
2023-01-06T03:21:05.460Z,7.04
2023-01-06T03:22:05.482Z,7.15
2023-01-06T03:23:05.173Z,7.08
2023-01-06T03:24:05.157Z,7.13
2023-01-06T03:25:05.401Z,7.12
2023-01-06T03:26:05.385Z,7.13
2023-01-06T03:27:05.358Z,7.16
2023-01-06T03:28:05.356Z,7.03
2023-01-06T03:29:05.203Z,7.13
2023-01-06T03:30:04.926Z,7.16
2023-01-06T03:31:05.491Z,7.19
2023-01-06T03:32:05.411Z,7.15
2023-01-06T03:33:07.543Z,7.21
2023-01-06T03:50:01.709Z,7.16
2023-01-06T03:51:01.340Z,7.16
2023-01-06T03:52:01.322Z,7.08
2023-01-06T03:53:01.047Z,7.18
2023-01-06T03:54:01.292Z,7.13
2023-01-06T03:55:01.266Z,7.13
2023-01-06T03:56:01.247Z,7.15
2023-01-06T03:57:01.243Z,7.11
2023-01-06T03:58:00.960Z,7.01
2023-01-06T03:59:00.952Z,7.12
2023-01-06T04:00:00.945Z,7.18
2023-01-06T04:01:01.078Z,7.11
2023-01-06T04:02:00.989Z,7.19
2023-01-06T04:03:00.876Z,7.09
2023-01-06T04:04:01.155Z,7.21
2023-01-06T04:05:01.107Z,7.22
2023-01-06T04:06:01.478Z,7.18
2023-01-06T04:07:00.830Z,7.16
2023-01-06T04:08:00.802Z,7.21
2023-01-06T04:09:00.797Z,7.22
2023-01-06T04:10:01.024Z,7.16
2023-01-06T04:11:00.764Z,7.27
2023-01-06T04:12:01.002Z,7.16
2023-01-06T04:13:00.738Z,7.26
2023-01-06T04:14:00.710Z,7.22
2023-01-06T04:15:00.960Z,7.19
2023-01-06T04:16:00.680Z,7.21
2023-01-06T04:17:00.920Z,7.22
2023-01-06T04:18:00.661Z,7.29
2023-01-06T04:19:00.880Z,7.29
2023-01-06T04:20:00.619Z,7.27
2023-01-06T04:21:00.855Z,7.27
2023-01-06T04:22:01.211Z,7.29
2023-01-06T04:23:00.817Z,7.27
2023-01-06T04:24:00.829Z,7.26
2023-01-06T04:25:00.799Z,7.31
2023-01-06T04:26:00.290Z,7.26
2023-01-06T04:27:00.782Z,7.29
2023-01-06T04:28:00.771Z,7.31
2023-01-06T04:29:00.494Z,7.27
2023-01-06T04:30:00.738Z,7.3
2023-01-06T04:31:00.441Z,7.36
2023-01-06T04:32:00.559Z,7.31
2023-01-06T04:33:00.682Z,7.36
2023-01-06T04:34:00.653Z,7.34
2023-01-06T04:35:00.649Z,7.31
2023-01-06T04:36:00.652Z,7.31
2023-01-06T04:37:00.622Z,7.39
2023-01-06T04:38:00.966Z,7.3
2023-01-06T04:39:00.341Z,7.33
2023-01-06T04:40:00.602Z,7.45
2023-01-06T04:41:00.566Z,7.44
2023-01-06T04:42:00.537Z,7.47
2023-01-06T04:43:00.286Z,7.52
2023-01-06T04:44:02.696Z,7.41
2023-01-06T04:45:00.263Z,7.51
2023-01-06T04:46:00.720Z,7.52
2023-01-06T04:47:00.478Z,7.55
2023-01-06T04:48:00.458Z,7.55
2023-01-06T04:49:00.450Z,7.44
2023-01-06T04:50:00.419Z,7.45
2023-01-06T04:51:00.161Z,7.51
2023-01-06T04:52:00.393Z,7.63
2023-01-06T04:53:00.131Z,7.61
2023-01-06T04:54:00.737Z,7.61
2023-01-06T04:55:00.121Z,7.61
2023-01-06T04:56:00.097Z,7.7
2023-01-06T04:56:59.817Z,7.58
2023-01-06T04:58:00.323Z,7.61
2023-01-06T04:59:00.047Z,7.61
2023-01-06T05:00:00.274Z,7.61
2023-01-06T05:01:00.171Z,7.58
2023-01-06T05:01:59.856Z,7.61
2023-01-06T05:03:00.226Z,7.71
2023-01-06T05:04:00.177Z,7.63
2023-01-06T05:04:59.984Z,7.58
2023-01-06T05:05:59.677Z,7.61
2023-01-06T05:06:59.660Z,7.67
2023-01-06T05:07:59.890Z,7.61
2023-01-06T05:08:59.638Z,7.7
2023-01-06T05:10:00.481Z,7.61
2023-01-06T05:11:00.137Z,7.61
2023-01-06T05:12:00.140Z,7.77
2023-01-06T05:12:59.830Z,7.74
2023-01-06T05:13:59.565Z,7.82
2023-01-06T05:14:59.824Z,7.75
2023-01-06T05:15:59.816Z,7.75
2023-01-06T05:17:00.029Z,7.78
2023-01-06T05:18:00.015Z,7.78
2023-01-06T05:18:59.994Z,7.77
2023-01-06T05:19:59.741Z,7.85
2023-01-06T05:20:59.987Z,7.85
2023-01-06T05:21:59.963Z,7.83
2023-01-06T05:22:59.682Z,7.78
2023-01-06T05:23:59.942Z,7.82
2023-01-06T05:24:59.682Z,7.8
2023-01-06T05:26:00.266Z,7.85
2023-01-06T05:26:59.953Z,7.86
2023-01-06T05:27:59.608Z,7.85
2023-01-06T05:28:59.628Z,7.92
2023-01-06T05:29:59.576Z,7.91
2023-01-06T05:30:59.559Z,7.93
2023-01-06T05:31:59.865Z,8.01
2023-01-06T05:32:59.549Z,7.92
2023-01-06T05:33:59.565Z,7.93
2023-01-06T05:34:59.786Z,7.99
2023-01-06T05:35:59.756Z,8.01
2023-01-06T05:36:59.741Z,7.96
2023-01-06T05:37:59.484Z,7.98
2023-01-06T05:38:59.796Z,8.07
2023-01-06T05:39:59.687Z,8.01
2023-01-06T05:40:59.685Z,8.07
2023-01-06T05:42:00.030Z,8.01
2023-01-06T05:42:59.410Z,8.09
2023-01-06T05:43:59.372Z,8.06
2023-01-06T05:44:59.622Z,8.07
2023-01-06T05:45:59.936Z,8.1
2023-01-06T05:46:59.630Z,8.1
2023-01-06T05:47:59.090Z,8.09
2023-01-06T05:48:59.591Z,8.11
2023-01-06T05:49:59.313Z,8.07
2023-01-06T05:50:59.275Z,8.06
2023-01-06T05:51:59.527Z,8.07
2023-01-06T05:53:01.730Z,8.1
2023-01-06T05:53:59.234Z,8.14
2023-01-06T05:54:59.491Z,8.14
2023-01-06T05:56:00.489Z,8.1
2023-01-06T05:57:00.223Z,8.16
2023-01-06T05:58:00.816Z,8.11
2023-01-06T05:59:00.172Z,8.21
2023-01-06T06:00:00.422Z,8.09
2023-01-06T06:01:00.408Z,8.22
2023-01-06T06:02:00.539Z,8.25
2023-01-06T06:03:00.126Z,8.14
2023-01-06T06:04:00.599Z,8.14
2023-01-06T06:05:00.364Z,8.07
2023-01-06T06:06:00.337Z,8.21
2023-01-06T06:07:00.314Z,8.13
2023-01-06T06:08:00.046Z,8.16
2023-01-06T06:09:00.061Z,8.24
2023-01-06T06:10:00.019Z,8.21
2023-01-06T06:11:00.258Z,8.21
2023-01-06T06:12:00.007Z,8.19
2023-01-06T06:12:59.982Z,8.28
2023-01-06T06:14:00.613Z,8.22
2023-01-06T06:14:59.715Z,8.16
2023-01-06T06:16:00.204Z,8.21
2023-01-06T06:16:59.939Z,8.26
2023-01-06T06:17:59.911Z,8.22
2023-01-06T06:19:00.168Z,8.1
2023-01-06T06:19:59.638Z,8.17
2023-01-06T06:20:59.881Z,8.24
2023-01-06T06:21:59.877Z,8.04
2023-01-06T06:22:59.587Z,8.24
2023-01-06T06:23:59.643Z,8.22
2023-01-06T06:25:00.072Z,8.25
2023-01-06T06:25:59.812Z,8.17
2023-01-06T06:27:00.057Z,8.13
2023-01-06T06:27:59.514Z,8.17
2023-01-06T06:28:59.746Z,8.13
2023-01-06T06:30:00.383Z,8.06
2023-01-06T06:31:00.650Z,8.09
2023-01-06T06:31:59.735Z,8.09
2023-01-06T06:32:59.454Z,8.04
2023-01-06T06:33:59.703Z,8.1
2023-01-06T06:34:59.962Z,8.04
2023-01-06T06:35:59.909Z,8.04
2023-01-06T06:36:59.889Z,8.04
2023-01-06T06:37:59.871Z,8.06
2023-01-06T06:38:59.904Z,8.07
2023-01-06T06:39:59.356Z,8.16
2023-01-06T06:40:59.962Z,8.13
2023-01-06T06:41:59.853Z,8.14
2023-01-06T06:42:59.566Z,8.17
2023-01-06T06:43:59.787Z,8.13
2023-01-06T06:44:59.543Z,8.13
2023-01-06T06:46:00.371Z,8.16
2023-01-06T06:46:59.749Z,8.24
2023-01-06T06:47:59.753Z,8.28
2023-01-06T06:48:59.481Z,8.07
2023-01-06T06:49:59.708Z,8.16
2023-01-06T06:50:59.446Z,8.07
2023-01-06T06:52:00.466Z,8.29
2023-01-06T06:52:59.663Z,8.24
2023-01-06T06:53:59.732Z,8.22
2023-01-06T06:54:59.650Z,8.21
2023-01-06T06:55:59.365Z,8.19
2023-01-06T06:56:59.638Z,8.19
2023-01-06T06:57:59.348Z,8.29
2023-01-06T06:58:59.618Z,8.35
2023-01-06T06:59:59.563Z,8.22
2023-01-06T07:00:59.641Z,8.25
2023-01-06T07:02:00.374Z,8.24
2023-01-06T07:02:59.315Z,8.19
2023-01-06T07:03:59.258Z,8.31
2023-01-06T07:04:59.545Z,8.29
2023-01-06T07:05:59.499Z,8.22
2023-01-06T07:06:59.208Z,8.32
2023-01-06T07:07:59.456Z,8.19
2023-01-06T07:08:59.440Z,8.26
2023-01-06T07:09:59.435Z,8.31
2023-01-06T07:10:59.167Z,8.32
2023-01-06T07:11:59.146Z,8.28
2023-01-06T07:12:58.867Z,8.29
2023-01-06T07:13:59.388Z,8.25
2023-01-06T07:14:59.356Z,8.26
2023-01-06T07:15:59.636Z,8.29
2023-01-06T07:16:59.349Z,8.35
2023-01-06T07:17:59.586Z,8.28
2023-01-06T07:18:59.299Z,8.29
2023-01-06T07:19:59.023Z,8.39
2023-01-06T07:20:59.032Z,8.29
2023-01-06T07:21:59.026Z,8.32
2023-01-06T07:22:59.108Z,8.42
2023-01-06T07:23:58.843Z,8.36
2023-01-06T07:24:58.815Z,8.36
2023-01-06T07:25:59.375Z,8.36
2023-01-06T07:26:58.785Z,8.34
2023-01-06T07:27:59.045Z,8.43
2023-01-06T07:28:59.021Z,8.43
2023-01-06T07:29:59.034Z,8.36
2023-01-06T07:30:59.551Z,8.36
2023-01-06T07:31:58.970Z,8.49
2023-01-06T07:32:59.252Z,8.47
2023-01-06T07:33:59.553Z,8.42
2023-01-06T07:34:58.930Z,8.47
2023-01-06T07:35:58.926Z,8.52
2023-01-06T07:36:58.919Z,8.49
2023-01-06T07:38:00.799Z,8.47
2023-01-06T07:38:59.130Z,8.49
2023-01-06T07:39:58.868Z,8.52
2023-01-06T07:40:58.844Z,8.49
2023-01-06T07:41:59.078Z,8.49
2023-01-06T07:42:59.059Z,8.49
2023-01-06T07:43:59.054Z,8.53
2023-01-06T07:44:58.555Z,8.57
2023-01-06T07:45:59.139Z,8.58
2023-01-06T07:46:59.008Z,8.5
2023-01-06T07:47:59.019Z,8.58
2023-01-06T07:48:58.988Z,8.61
2023-01-06T07:49:59.356Z,8.44
2023-01-06T07:50:59.292Z,8.61
2023-01-06T07:51:58.961Z,8.49
2023-01-06T07:52:59.056Z,8.57
2023-01-06T07:53:58.658Z,8.53
2023-01-06T07:54:58.905Z,8.58
2023-01-06T07:55:58.924Z,8.57
2023-01-06T07:56:58.898Z,8.52
2023-01-06T07:57:58.746Z,8.62
2023-01-06T07:58:58.860Z,8.68
2023-01-06T07:59:58.837Z,8.65
2023-01-06T08:00:58.828Z,8.67
2023-01-06T08:01:59.162Z,8.61
2023-01-06T08:02:59.074Z,8.64
2023-01-06T08:03:58.266Z,8.69
2023-01-06T08:05:00.696Z,8.68
2023-01-06T08:05:59.113Z,8.72
2023-01-06T08:06:58.755Z,8.67
2023-01-06T08:07:58.481Z,8.71
2023-01-06T08:08:58.712Z,8.74
2023-01-06T08:09:58.442Z,8.67
2023-01-06T08:10:58.681Z,8.74
2023-01-06T08:11:58.405Z,8.72
2023-01-06T08:12:58.401Z,8.72
2023-01-06T08:13:58.379Z,8.65
2023-01-06T08:14:58.381Z,8.74
2023-01-06T08:15:58.510Z,8.74
2023-01-06T08:16:58.603Z,8.72
2023-01-06T08:17:58.606Z,8.65
2023-01-06T08:18:58.325Z,8.64
2023-01-06T08:19:58.310Z,8.58
2023-01-06T08:20:58.584Z,8.69
2023-01-06T08:21:58.870Z,8.76
2023-01-06T08:22:58.530Z,8.72
2023-01-06T08:23:58.235Z,8.72
2023-01-06T08:24:57.976Z,8.76
2023-01-06T08:25:58.218Z,8.76
2023-01-06T08:26:58.461Z,8.76
2023-01-06T08:27:58.451Z,8.74
2023-01-06T08:28:58.189Z,8.76
2023-01-06T08:29:58.421Z,8.87
2023-01-06T08:30:59.865Z,8.87
2023-01-06T08:32:12.996Z,9
2023-01-06T08:32:58.379Z,8.97
2023-01-06T08:33:57.931Z,8.92
2023-01-06T08:34:58.102Z,9.05
2023-01-06T08:35:58.349Z,9
2023-01-06T08:36:58.339Z,9.01
2023-01-06T08:37:58.664Z,9
2023-01-06T08:38:58.297Z,9.01
2023-01-06T08:39:58.359Z,9.11
2023-01-06T08:40:58.016Z,9.14
2023-01-06T08:41:58.265Z,9.11
2023-01-06T08:42:58.253Z,9.19
2023-01-06T08:43:57.965Z,9.21
2023-01-06T08:44:58.606Z,9.2
2023-01-06T08:45:57.947Z,9.21
2023-01-06T08:46:58.196Z,9.2
2023-01-06T08:47:57.945Z,9.19
2023-01-06T08:48:57.911Z,9.23
2023-01-06T08:49:58.143Z,9.34
2023-01-06T08:50:58.148Z,9.34
2023-01-06T08:51:57.613Z,9.52
2023-01-06T08:52:57.874Z,9.47
2023-01-06T08:53:58.461Z,9.5
2023-01-06T08:54:58.084Z,9.48
2023-01-06T08:55:58.077Z,9.5
2023-01-06T08:56:57.809Z,9.47
2023-01-06T08:57:59.814Z,9.56
2023-01-06T08:58:57.787Z,9.53
2023-01-06T08:59:58.017Z,9.56
2023-01-06T09:00:58.002Z,9.55
2023-01-06T09:01:58.519Z,9.67
2023-01-06T09:02:57.979Z,9.7
2023-01-06T09:03:57.967Z,9.67
2023-01-06T09:04:58.096Z,9.75
2023-01-06T09:05:58.121Z,9.77
2023-01-06T09:06:59.751Z,9.8
2023-01-06T09:07:57.802Z,9.85
2023-01-06T09:08:58.050Z,9.8
2023-01-06T09:09:58.313Z,9.9
2023-01-06T09:10:58.034Z,9.92
2023-01-06T09:11:58.065Z,9.92
2023-01-06T09:12:57.741Z,9.88
2023-01-06T09:13:58.042Z,9.89
2023-01-06T09:14:57.733Z,9.88
2023-01-06T09:15:58.133Z,9.82
2023-01-06T09:16:57.960Z,9.84
2023-01-06T09:17:57.672Z,9.85
2023-01-06T09:18:57.672Z,9.77
2023-01-06T09:19:57.954Z,9.8
2023-01-06T09:20:57.886Z,9.74
2023-01-06T09:21:59.576Z,9.71
2023-01-06T09:22:57.863Z,9.66
2023-01-06T09:23:57.952Z,9.71
2023-01-06T09:24:57.580Z,9.71
2023-01-06T09:25:58.196Z,9.67
2023-01-06T09:26:57.803Z,9.67
2023-01-06T09:27:57.571Z,9.78
2023-01-06T09:28:57.526Z,9.74
2023-01-06T09:29:57.270Z,9.7
2023-01-06T09:30:57.907Z,9.7
2023-01-06T09:31:57.744Z,9.7
2023-01-06T09:32:57.484Z,9.75
2023-01-06T09:33:57.222Z,9.81
2023-01-06T09:34:57.455Z,9.81
2023-01-06T09:35:57.441Z,9.92
2023-01-06T09:36:57.432Z,9.89
2023-01-06T09:37:57.412Z,9.9
2023-01-06T09:38:57.445Z,9.95
2023-01-06T09:39:57.383Z,9.96
2023-01-06T09:40:57.640Z,10
2023-01-06T09:41:58.005Z,9.98
2023-01-06T09:42:57.607Z,9.96
2023-01-06T09:43:57.378Z,9.92
2023-01-06T09:44:57.633Z,9.96
2023-01-06T09:45:57.336Z,9.93
2023-01-06T09:46:57.708Z,9.89
2023-01-06T09:47:57.564Z,9.81
2023-01-06T09:48:57.545Z,9.81
2023-01-06T09:49:57.527Z,9.81
2023-01-06T09:50:57.558Z,9.75
2023-01-06T09:51:57.492Z,9.8
2023-01-06T09:52:57.483Z,9.77
2023-01-06T09:53:57.475Z,9.75
2023-01-06T09:54:56.961Z,9.74
2023-01-06T09:55:57.459Z,9.75
2023-01-06T09:56:57.438Z,9.85
2023-01-06T09:58:00.606Z,9.88
2023-01-06T09:58:57.151Z,9.9
2023-01-06T09:59:57.397Z,9.96
2023-01-06T10:00:57.137Z,9.96
2023-01-06T10:01:57.724Z,9.93
2023-01-06T10:02:57.365Z,10.05
2023-01-06T10:03:57.540Z,10.05
2023-01-06T10:04:57.348Z,10
2023-01-06T10:05:56.923Z,9.99
2023-01-06T10:06:57.080Z,9.93
2023-01-06T10:07:57.288Z,10.02
2023-01-06T10:08:57.034Z,9.99
2023-01-06T10:09:57.263Z,9.93
2023-01-06T10:10:57.275Z,9.88
2023-01-06T10:11:57.001Z,9.96
2023-01-06T10:12:57.233Z,9.92
2023-01-06T10:13:57.585Z,9.9
2023-01-06T10:14:56.964Z,9.84
2023-01-06T10:15:57.164Z,9.92
2023-01-06T10:16:57.195Z,9.81
2023-01-06T10:17:56.654Z,9.89
2023-01-06T10:18:57.164Z,9.9
2023-01-06T10:19:57.375Z,9.88
2023-01-06T10:20:57.151Z,9.92
2023-01-06T10:21:57.121Z,9.92
2023-01-06T10:22:57.158Z,9.82
2023-01-06T10:23:56.858Z,9.82
2023-01-06T10:24:56.917Z,9.81
2023-01-06T10:25:56.815Z,9.8
2023-01-06T10:26:56.796Z,9.77
2023-01-06T10:27:56.790Z,9.9
2023-01-06T10:28:57.081Z,9.95
2023-01-06T10:29:57.336Z,9.95
2023-01-06T10:30:56.521Z,9.95
2023-01-06T10:31:56.750Z,9.93
2023-01-06T10:32:56.712Z,9.92
2023-01-06T10:33:57.022Z,9.98
2023-01-06T10:34:56.952Z,9.9
2023-01-06T10:35:56.735Z,9.93
2023-01-06T10:36:56.692Z,9.95
2023-01-06T10:37:56.943Z,9.95
2023-01-06T10:38:56.935Z,9.95
2023-01-06T10:39:56.638Z,9.98
2023-01-06T10:40:56.622Z,9.95
2023-01-06T10:41:56.645Z,9.78
2023-01-06T10:42:56.872Z,9.81
2023-01-06T10:43:56.879Z,9.82
2023-01-06T10:44:56.565Z,9.82
2023-01-06T10:45:57.153Z,9.84
2023-01-06T10:46:56.953Z,9.92
2023-01-06T10:47:56.802Z,9.93
2023-01-06T10:48:56.782Z,9.96
2023-01-06T10:49:56.777Z,9.89
2023-01-06T10:50:59.607Z,9.93
2023-01-06T10:51:56.897Z,9.92
2023-01-06T10:52:56.718Z,9.93
2023-01-06T10:53:56.464Z,9.92
2023-01-06T10:54:56.461Z,9.95
2023-01-06T10:55:56.457Z,9.96
2023-01-06T10:56:56.439Z,9.98
2023-01-06T10:57:56.414Z,9.93
2023-01-06T10:58:56.655Z,9.9
2023-01-06T10:59:56.408Z,9.95
2023-01-06T11:00:56.446Z,9.93
2023-01-06T11:01:57.679Z,9.9
2023-01-06T11:03:04.730Z,9.95
2023-01-06T11:03:56.600Z,9.89
2023-01-06T11:04:56.330Z,9.82
2023-01-06T11:05:56.569Z,9.78
2023-01-06T11:06:56.306Z,9.78
2023-01-06T11:07:56.778Z,9.72
2023-01-06T11:08:56.545Z,9.75
2023-01-06T11:09:56.537Z,9.77
2023-01-06T11:10:56.255Z,9.67
2023-01-06T11:11:56.478Z,9.75
2023-01-06T11:12:56.469Z,9.78
2023-01-06T11:13:55.958Z,9.77
2023-01-06T11:14:56.187Z,9.81
2023-01-06T11:15:56.302Z,9.8
2023-01-06T11:16:56.445Z,9.85
2023-01-06T11:17:56.800Z,9.84
2023-01-06T11:18:56.389Z,9.89
2023-01-06T11:19:56.436Z,9.89
2023-01-06T11:20:56.418Z,9.82
2023-01-06T11:21:56.360Z,9.81
2023-01-06T11:22:56.364Z,9.8
2023-01-06T11:23:56.342Z,9.67
2023-01-06T11:24:56.346Z,9.71
2023-01-06T11:25:56.050Z,9.6
2023-01-06T11:26:56.065Z,9.57
2023-01-06T11:27:56.019Z,9.47
2023-01-06T11:28:56.010Z,9.45
2023-01-06T11:29:56.026Z,9.52
2023-01-06T11:30:56.241Z,9.47
2023-01-06T11:31:56.356Z,9.37
2023-01-06T11:32:56.218Z,9.38
2023-01-06T11:33:56.608Z,9.35
2023-01-06T11:34:56.242Z,9.32
2023-01-06T11:35:55.945Z,9.3
2023-01-06T11:36:55.908Z,9.17
2023-01-06T11:37:55.704Z,9.23
2023-01-06T11:38:56.213Z,9.19
2023-01-06T11:40:14.147Z,9.21
2023-01-06T11:40:55.931Z,9.2
2023-01-06T11:41:56.199Z,9.17
2023-01-06T11:42:56.145Z,9.14
2023-01-06T11:43:57.474Z,9.12
2023-01-06T11:44:55.888Z,9.11
2023-01-06T11:45:56.003Z,9.12
2023-01-06T11:46:56.100Z,9.01
2023-01-06T11:47:55.814Z,9.03
2023-01-06T11:48:55.808Z,9.04
2023-01-06T11:49:56.423Z,9.12
2023-01-06T11:50:55.786Z,9.03
2023-01-06T11:51:55.528Z,9.16
2023-01-06T11:52:56.005Z,9.19
2023-01-06T11:53:55.757Z,9.2
2023-01-06T11:54:55.721Z,9.21
2023-01-06T11:55:55.728Z,9.26
2023-01-06T11:56:55.698Z,9.32
2023-01-06T11:57:55.943Z,9.29
2023-01-06T11:58:55.423Z,9.17
2023-01-06T11:59:55.687Z,9.32
2023-01-06T12:00:55.664Z,9.38
2023-01-06T12:01:56.325Z,9.34
2023-01-06T12:02:55.965Z,9.27
2023-01-06T12:03:55.605Z,9.37
2023-01-06T12:04:55.855Z,9.32
2023-01-06T12:05:56.224Z,9.41
2023-01-06T12:06:55.826Z,9.44
2023-01-06T12:07:55.577Z,9.47
2023-01-06T12:08:55.545Z,9.45
2023-01-06T12:09:55.777Z,9.42
2023-01-06T12:10:55.510Z,9.52
2023-01-06T12:11:55.591Z,9.48
2023-01-06T12:12:55.523Z,9.42
2023-01-06T12:14:30.036Z,9.45
2023-01-06T12:14:55.720Z,9.37
2023-01-06T12:15:55.450Z,9.39
2023-01-06T12:16:56.007Z,9.38
2023-01-06T12:17:55.217Z,9.42
2023-01-06T12:18:55.673Z,9.35
2023-01-06T12:19:55.395Z,9.3
2023-01-06T12:20:55.405Z,9.26
2023-01-06T12:21:55.887Z,9.37
2023-01-06T12:22:55.623Z,9.39
2023-01-06T12:23:55.367Z,9.42
2023-01-06T12:24:55.602Z,9.38
2023-01-06T12:25:55.320Z,9.34
2023-01-06T12:26:55.557Z,9.39
2023-01-06T12:27:55.296Z,9.32
2023-01-06T12:28:55.277Z,9.38
2023-01-06T12:29:55.522Z,9.3
2023-01-06T12:30:55.241Z,9.35
2023-01-06T12:31:55.242Z,9.39
2023-01-06T12:32:55.488Z,9.37
2023-01-06T12:33:55.210Z,9.41
2023-01-06T12:34:55.198Z,9.32
2023-01-06T12:35:55.487Z,9.29
2023-01-06T12:36:55.215Z,9.29
2023-01-06T12:37:55.777Z,9.2
2023-01-06T12:38:55.162Z,9.21
2023-01-06T12:39:55.144Z,9.24
2023-01-06T12:40:55.409Z,9.17
2023-01-06T12:41:55.418Z,9.17
2023-01-06T12:42:55.358Z,9.17
2023-01-06T12:43:55.345Z,9.21
2023-01-06T12:44:54.839Z,9.19
2023-01-06T12:46:02.154Z,9.17
2023-01-06T12:46:55.297Z,9.16
2023-01-06T12:47:57.050Z,9.11
2023-01-06T12:48:55.293Z,9.2
2023-01-06T12:49:55.288Z,9.19
2023-01-06T12:50:54.735Z,9.16
2023-01-06T12:51:55.233Z,9.2
2023-01-06T12:52:54.960Z,9.23
2023-01-06T12:53:56.622Z,9.23
2023-01-06T12:54:55.189Z,9.19
2023-01-06T12:55:55.188Z,9.23
2023-01-06T12:56:55.175Z,9.17
2023-01-06T12:57:54.902Z,9.2
2023-01-06T12:58:55.162Z,9.16
2023-01-06T12:59:55.157Z,9.09
2023-01-06T13:00:55.105Z,9.05
2023-01-06T13:01:55.535Z,9
2023-01-06T13:02:54.931Z,9.04
2023-01-06T13:03:55.030Z,9.09
2023-01-06T13:04:54.803Z,9.11
2023-01-06T13:05:54.535Z,9.08
2023-01-06T13:06:55.033Z,9.09
2023-01-06T13:07:55.047Z,9.09
2023-01-06T13:08:55.027Z,9.14
2023-01-06T13:09:55.388Z,9.12
2023-01-06T13:10:54.976Z,9.14
2023-01-06T13:11:54.719Z,9.05
2023-01-06T13:12:54.958Z,9.01
2023-01-06T13:13:54.957Z,9.11
2023-01-06T13:14:54.670Z,9
2023-01-06T13:15:54.657Z,9.04
2023-01-06T13:16:55.036Z,9.09
2023-01-06T13:17:54.892Z,9.01
2023-01-06T13:18:54.647Z,9.04
2023-01-06T13:19:54.647Z,9.03
2023-01-06T13:20:54.856Z,9
2023-01-06T13:21:55.404Z,8.95
2023-01-06T13:22:54.852Z,9
2023-01-06T13:23:54.811Z,9
2023-01-06T13:24:54.801Z,9.09
2023-01-06T13:25:55.182Z,9.04
2023-01-06T13:26:54.781Z,8.98
2023-01-06T13:27:54.790Z,9.01
2023-01-06T13:28:54.504Z,9.14
2023-01-06T13:29:54.470Z,9.03
2023-01-06T13:30:54.696Z,9.03
2023-01-06T13:31:54.689Z,8.97
2023-01-06T13:32:54.230Z,9.03
2023-01-06T13:33:54.197Z,9.08
2023-01-06T13:34:54.654Z,8.97
2023-01-06T13:35:54.391Z,9
2023-01-06T13:36:54.409Z,9
2023-01-06T13:37:54.610Z,9
2023-01-06T13:38:54.088Z,8.97